In Rescue
 
Open Full Screen Window  High Contrast Mode
September 22, 2020 12:28 AM EDT
Weather Information
Wind Direction
  ---
Wind Speed
  00 kt (0 mph)
Wind Gust
  00 kt (0 mph)
Altimeter
30.30 in
Visibility
10 SM
Temperature
10° C
50° F
Dewpoint
09° C
48° F
Humidity
94%
Sky Condition
Clear
VFR

METAR KHAI 220428Z AUTO 00000KT 10SM CLR 10/09 A3030 RMK AO2 T00990085

FAA Disclaimer: The data displayed is for advisory purposes only and is not to be used for flight planning or operations.